createdAt,value
2018-05-11T00:00:14.635Z,0.00
2018-05-11T00:01:14.773Z,0.00
2018-05-11T00:02:14.909Z,0.00
2018-05-11T00:03:15.049Z,0.00
2018-05-11T00:04:15.184Z,0.00
2018-05-11T00:05:15.322Z,0.00
2018-05-11T00:06:15.470Z,0.00
2018-05-11T00:07:15.599Z,0.00
2018-05-11T00:08:15.742Z,0.00
2018-05-11T00:09:15.881Z,0.00
2018-05-11T00:10:16.007Z,0.00
2018-05-11T00:12:48.166Z,0.00
2018-05-11T00:13:48.303Z,0.00
2018-05-11T00:14:48.533Z,0.00
2018-05-11T00:15:48.597Z,0.00
2018-05-11T00:16:48.736Z,0.00
2018-05-11T00:17:48.927Z,0.00
2018-05-11T00:18:49.071Z,0.00
2018-05-11T00:19:49.205Z,0.00
2018-05-11T00:20:49.348Z,0.00
2018-05-11T00:21:49.486Z,0.00
2018-05-11T00:22:49.649Z,0.00
2018-05-11T00:23:49.785Z,0.00
2018-05-11T00:24:49.920Z,0.00
2018-05-11T00:25:50.057Z,0.00
2018-05-11T00:26:50.225Z,0.00
2018-05-11T00:27:50.363Z,0.00
2018-05-11T00:28:50.501Z,0.00
2018-05-11T00:29:50.643Z,0.00
2018-05-11T00:30:50.803Z,0.00
2018-05-11T00:31:50.930Z,0.00
2018-05-11T00:32:51.100Z,0.00
2018-05-11T00:33:51.241Z,0.00
2018-05-11T00:34:51.374Z,0.00
2018-05-11T00:35:51.518Z,0.00
2018-05-11T00:36:51.653Z,0.00
2018-05-11T00:37:51.829Z,0.00
2018-05-11T00:38:51.961Z,0.00
2018-05-11T00:39:52.105Z,0.00
2018-05-11T00:40:52.245Z,0.00
2018-05-11T00:41:52.394Z,0.00
2018-05-11T00:42:52.525Z,0.00
2018-05-11T00:43:52.667Z,0.00
2018-05-11T00:44:53.720Z,0.00
2018-05-11T00:45:52.952Z,0.00
2018-05-11T00:46:53.088Z,0.00
2018-05-11T00:47:53.225Z,0.00
2018-05-11T00:48:53.360Z,0.00
2018-05-11T00:49:53.523Z,0.00
2018-05-11T00:50:53.661Z,0.00
2018-05-11T00:51:53.803Z,0.00
2018-05-11T00:52:53.941Z,0.00
2018-05-11T00:53:54.098Z,0.00
2018-05-11T00:54:54.233Z,0.00
2018-05-11T00:55:54.376Z,0.00
2018-05-11T00:56:54.517Z,0.00
2018-05-11T00:57:54.664Z,0.00
2018-05-11T00:58:54.804Z,0.00
2018-05-11T00:59:54.939Z,0.00
2018-05-11T01:00:55.087Z,0.00
2018-05-11T01:01:55.228Z,0.00
2018-05-11T01:02:55.367Z,0.00
2018-05-11T01:03:55.498Z,0.00
2018-05-11T01:04:55.636Z,0.00
2018-05-11T01:05:55.779Z,0.00
2018-05-11T01:06:55.911Z,0.00
2018-05-11T01:07:56.052Z,0.00
2018-05-11T01:08:56.192Z,0.00
2018-05-11T01:09:56.329Z,0.00
2018-05-11T01:10:56.469Z,0.00
2018-05-11T01:11:56.609Z,0.00
2018-05-11T01:12:56.743Z,0.00
2018-05-11T01:13:56.881Z,0.00
2018-05-11T01:14:57.025Z,0.00
2018-05-11T01:15:57.161Z,0.00
2018-05-11T01:16:57.310Z,0.00
2018-05-11T01:17:57.442Z,0.00
2018-05-11T01:18:57.572Z,0.00
2018-05-11T01:19:57.709Z,0.00
2018-05-11T01:20:57.849Z,0.00
2018-05-11T01:21:57.985Z,0.00
2018-05-11T01:22:58.131Z,0.00
2018-05-11T01:23:58.271Z,0.00
2018-05-11T01:24:58.413Z,0.00
2018-05-11T01:25:58.550Z,0.00
2018-05-11T01:26:58.688Z,0.00
2018-05-11T01:27:58.829Z,0.00
2018-05-11T01:28:59.031Z,0.00
2018-05-11T01:29:59.068Z,0.00
2018-05-11T01:30:59.211Z,0.00
2018-05-11T01:31:59.349Z,0.00
2018-05-11T01:32:59.496Z,0.00
2018-05-11T01:33:59.638Z,0.00
2018-05-11T01:34:59.783Z,0.00
2018-05-11T01:35:59.911Z,0.00
2018-05-11T01:37:00.057Z,0.00
2018-05-11T01:38:00.197Z,0.00
2018-05-11T01:39:00.351Z,0.00
2018-05-11T01:40:00.489Z,0.00
2018-05-11T01:41:00.628Z,0.00
2018-05-11T01:42:00.768Z,0.00
2018-05-11T01:43:00.910Z,0.00
2018-05-11T01:44:01.040Z,0.00
2018-05-11T01:45:01.189Z,0.00
2018-05-11T01:46:01.330Z,0.00
2018-05-11T01:47:01.498Z,0.00
2018-05-11T01:48:01.633Z,0.00
2018-05-11T01:49:01.769Z,0.00
2018-05-11T01:50:01.963Z,0.00
2018-05-11T01:51:02.097Z,0.00
2018-05-11T01:52:02.241Z,0.00
2018-05-11T01:53:02.377Z,0.00
2018-05-11T01:54:02.524Z,0.00
2018-05-11T01:55:02.657Z,0.00
2018-05-11T01:56:02.797Z,0.00
2018-05-11T01:57:02.932Z,0.00
2018-05-11T01:58:03.101Z,0.00
2018-05-11T01:59:03.231Z,0.00
2018-05-11T02:00:03.376Z,0.00
2018-05-11T02:01:03.517Z,0.00
2018-05-11T02:02:03.661Z,0.00
2018-05-11T02:03:03.794Z,0.00
2018-05-11T02:04:03.937Z,0.00
2018-05-11T02:05:04.087Z,0.00
2018-05-11T02:06:04.222Z,0.00
2018-05-11T02:07:04.355Z,0.00
2018-05-11T02:08:04.487Z,0.00
2018-05-11T02:09:04.635Z,0.00
2018-05-11T02:10:04.774Z,0.00
2018-05-11T02:11:04.911Z,0.00
2018-05-11T02:12:05.043Z,0.00
2018-05-11T02:13:05.248Z,0.00
2018-05-11T02:14:05.261Z,0.00
2018-05-11T02:15:05.395Z,0.00
2018-05-11T02:16:06.234Z,0.00
2018-05-11T02:17:05.725Z,0.00
2018-05-11T02:18:05.855Z,0.00
2018-05-11T02:19:05.993Z,0.00
2018-05-11T02:20:06.129Z,0.00
2018-05-11T02:21:06.266Z,0.00
2018-05-11T02:22:06.403Z,0.00
2018-05-11T02:23:06.546Z,0.00
2018-05-11T02:24:06.689Z,0.00
2018-05-11T02:25:06.827Z,0.00
2018-05-11T02:26:06.966Z,0.00
2018-05-11T02:27:07.108Z,0.00
2018-05-11T02:28:07.249Z,0.00
2018-05-11T02:29:07.402Z,0.00
2018-05-11T02:30:07.539Z,0.00
2018-05-11T02:31:07.681Z,0.00
2018-05-11T02:32:07.820Z,0.00
2018-05-11T02:33:07.959Z,0.00
2018-05-11T02:34:08.096Z,0.00
2018-05-11T02:35:08.234Z,0.00
2018-05-11T02:36:08.368Z,0.00
2018-05-11T02:37:08.509Z,0.00
2018-05-11T02:38:08.645Z,0.00
2018-05-11T02:39:08.783Z,0.00
2018-05-11T02:40:08.937Z,0.00
2018-05-11T02:41:09.063Z,0.00
2018-05-11T02:42:09.196Z,0.00
2018-05-11T02:43:09.333Z,0.00
2018-05-11T02:44:09.474Z,0.00
2018-05-11T02:45:09.622Z,0.00
2018-05-11T02:46:09.758Z,0.00
2018-05-11T02:47:09.894Z,0.00
2018-05-11T02:48:10.038Z,0.00
2018-05-11T02:49:10.178Z,0.00
2018-05-11T02:50:10.307Z,0.00
2018-05-11T02:51:10.450Z,0.00
2018-05-11T02:52:10.586Z,0.00
2018-05-11T02:53:10.725Z,0.00
2018-05-11T02:54:10.874Z,0.00
2018-05-11T02:55:11.007Z,0.00
2018-05-11T02:56:11.161Z,0.00
2018-05-11T02:57:11.337Z,0.00
2018-05-11T02:58:11.475Z,0.00
2018-05-11T02:59:11.617Z,0.00
2018-05-11T03:00:11.762Z,0.00
2018-05-11T03:01:11.893Z,0.00
2018-05-11T03:02:12.033Z,0.00
2018-05-11T03:03:12.188Z,0.00
2018-05-11T03:04:12.323Z,0.00
2018-05-11T03:05:12.456Z,0.00
2018-05-11T03:06:12.615Z,0.00
2018-05-11T03:07:12.816Z,0.00
2018-05-11T03:08:12.931Z,0.00
2018-05-11T03:09:12.950Z,0.00
2018-05-11T03:10:13.091Z,0.00
2018-05-11T03:11:13.229Z,0.00
2018-05-11T03:12:13.363Z,0.00
2018-05-11T03:13:13.509Z,4.00
2018-05-11T03:14:13.655Z,4.00
2018-05-11T03:15:13.795Z,4.00
2018-05-11T03:16:13.934Z,0.00
2018-05-11T03:17:14.067Z,4.00
2018-05-11T03:18:14.234Z,4.00
2018-05-11T03:19:14.362Z,0.00
2018-05-11T03:20:14.508Z,4.00
2018-05-11T03:21:14.637Z,4.00
2018-05-11T03:22:14.782Z,4.00
2018-05-11T03:23:14.928Z,8.00
2018-05-11T03:24:15.065Z,8.00
2018-05-11T03:25:15.215Z,12.00
2018-05-11T03:26:15.347Z,12.00
2018-05-11T03:27:15.481Z,12.00
2018-05-11T03:28:15.618Z,16.00
2018-05-11T03:29:15.764Z,16.00
2018-05-11T03:30:15.900Z,16.00
2018-05-11T03:31:16.036Z,16.00
2018-05-11T03:32:16.177Z,20.00
2018-05-11T03:33:16.341Z,24.00
2018-05-11T03:34:16.479Z,24.00
2018-05-11T03:35:16.617Z,28.00
2018-05-11T03:36:16.779Z,28.00
2018-05-11T03:37:16.904Z,32.00
2018-05-11T03:38:17.074Z,32.00
2018-05-11T03:39:17.212Z,32.00
2018-05-11T03:40:17.355Z,32.00
2018-05-11T03:41:17.517Z,32.00
2018-05-11T03:42:17.651Z,32.00
2018-05-11T03:43:17.795Z,36.00
2018-05-11T03:44:17.934Z,40.00
2018-05-11T03:45:18.075Z,44.00
2018-05-11T03:46:18.215Z,48.00
2018-05-11T03:47:18.355Z,52.00
2018-05-11T03:48:18.495Z,56.00
2018-05-11T03:49:18.634Z,60.00
2018-05-11T03:50:18.773Z,68.00
2018-05-11T03:51:18.911Z,76.00
2018-05-11T03:52:19.049Z,84.00
2018-05-11T03:53:19.246Z,92.00
2018-05-11T03:54:19.395Z,100.00
2018-05-11T03:55:19.536Z,100.00
2018-05-11T03:56:19.676Z,100.00
2018-05-11T03:57:19.818Z,104.00
2018-05-11T03:58:19.954Z,112.00
2018-05-11T03:59:20.084Z,120.00
2018-05-11T04:00:20.230Z,124.00
2018-05-11T04:01:20.371Z,132.00
2018-05-11T04:02:20.511Z,136.00
2018-05-11T04:03:20.655Z,136.00
2018-05-11T04:04:20.789Z,140.00
2018-05-11T04:05:20.928Z,156.00
2018-05-11T04:06:21.065Z,168.00
2018-05-11T04:07:22.026Z,176.00
2018-05-11T04:08:21.321Z,172.00
2018-05-11T04:09:21.468Z,172.00
2018-05-11T04:10:21.614Z,176.00
2018-05-11T04:11:21.738Z,172.00
2018-05-11T04:12:21.891Z,168.00
2018-05-11T04:13:22.025Z,164.00
2018-05-11T04:14:22.191Z,164.00
2018-05-11T04:15:22.327Z,168.00
2018-05-11T04:16:22.467Z,184.00
2018-05-11T04:17:22.606Z,200.00
2018-05-11T04:18:22.782Z,220.00
2018-05-11T04:19:22.900Z,236.00
2018-05-11T04:20:23.062Z,240.00
2018-05-11T04:21:23.213Z,256.00
2018-05-11T04:22:23.361Z,256.00
2018-05-11T04:23:23.499Z,248.00
2018-05-11T04:24:23.634Z,252.00
2018-05-11T04:25:23.795Z,260.00
2018-05-11T04:26:23.931Z,272.00
2018-05-11T04:27:24.074Z,284.00
2018-05-11T04:28:24.211Z,292.00
2018-05-11T04:29:24.382Z,308.00
2018-05-11T04:30:24.515Z,320.00
2018-05-11T04:31:24.669Z,348.00
2018-05-11T04:32:24.798Z,392.00
2018-05-11T04:33:24.931Z,428.00
2018-05-11T04:34:25.075Z,468.00
2018-05-11T04:35:25.217Z,492.00
2018-05-11T04:36:25.357Z,508.00
2018-05-11T04:37:25.492Z,512.00
2018-05-11T04:38:25.657Z,520.00
2018-05-11T04:39:25.790Z,520.00
2018-05-11T04:40:25.935Z,516.00
2018-05-11T04:41:26.091Z,512.00
2018-05-11T04:42:26.229Z,520.00
2018-05-11T04:43:26.365Z,544.00
2018-05-11T04:44:26.505Z,572.00
2018-05-11T04:45:26.657Z,580.00
2018-05-11T04:46:26.792Z,588.00
2018-05-11T04:47:26.931Z,592.00
2018-05-11T04:48:27.068Z,584.00
2018-05-11T04:49:27.233Z,564.00
2018-05-11T04:50:27.381Z,544.00
2018-05-11T04:51:27.513Z,560.00
2018-05-11T04:52:27.664Z,588.00
2018-05-11T04:53:27.799Z,624.00
2018-05-11T04:54:27.946Z,648.00
2018-05-11T04:55:28.086Z,636.00
2018-05-11T04:56:28.226Z,636.00
2018-05-11T04:57:28.362Z,644.00
2018-05-11T04:58:28.501Z,660.00
2018-05-11T04:59:28.640Z,656.00
2018-05-11T05:00:28.784Z,668.00
2018-05-11T05:01:28.921Z,684.00
2018-05-11T05:02:29.091Z,696.00
2018-05-11T05:03:29.225Z,704.00
2018-05-11T05:04:29.401Z,708.00
2018-05-11T05:05:29.543Z,724.00
2018-05-11T05:06:29.686Z,744.00
2018-05-11T05:07:29.825Z,760.00
2018-05-11T05:08:29.962Z,772.00
2018-05-11T05:09:30.100Z,804.00
2018-05-11T05:10:30.242Z,836.00
2018-05-11T05:11:30.375Z,860.00
2018-05-11T05:12:30.511Z,880.00
2018-05-11T05:13:30.664Z,900.00
2018-05-11T05:14:30.806Z,920.00
2018-05-11T05:15:30.943Z,952.00
2018-05-11T05:16:31.108Z,972.00
2018-05-11T05:17:31.220Z,984.00
2018-05-11T05:18:31.360Z,1004.00
2018-05-11T05:19:31.501Z,996.00
2018-05-11T05:20:31.642Z,992.00
2018-05-11T05:21:31.784Z,992.00
2018-05-11T05:22:31.920Z,980.00
2018-05-11T05:23:32.063Z,960.00
2018-05-11T05:24:32.204Z,940.00
2018-05-11T05:25:32.345Z,932.00
2018-05-11T05:26:32.486Z,948.00
2018-05-11T05:27:32.620Z,968.00
2018-05-11T05:28:32.764Z,988.00
2018-05-11T05:29:32.911Z,1020.00
2018-05-11T05:30:33.104Z,1032.00
2018-05-11T05:31:33.232Z,1032.00
2018-05-11T05:32:33.373Z,1072.00
2018-05-11T05:33:33.509Z,1144.00
2018-05-11T05:34:33.682Z,1240.00
2018-05-11T05:35:33.815Z,1324.00
2018-05-11T05:36:33.960Z,1352.00
2018-05-11T05:37:34.097Z,1312.00
2018-05-11T05:38:34.258Z,1276.00
2018-05-11T05:39:34.394Z,1248.00
2018-05-11T05:40:34.535Z,1288.00
2018-05-11T05:41:34.675Z,1372.00
2018-05-11T05:42:34.837Z,1480.00
2018-05-11T05:43:34.949Z,1548.00
2018-05-11T05:44:35.089Z,1564.00
2018-05-11T05:45:35.292Z,1552.00
2018-05-11T05:46:35.392Z,1560.00
2018-05-11T05:47:35.537Z,1564.00
2018-05-11T05:48:35.673Z,1584.00
2018-05-11T05:49:35.811Z,1628.00
2018-05-11T05:50:35.945Z,1712.00
2018-05-11T05:51:36.110Z,1776.00
2018-05-11T05:52:36.236Z,1812.00
2018-05-11T05:53:36.389Z,1804.00
2018-05-11T05:54:36.526Z,1820.00
2018-05-11T05:55:36.680Z,1860.00
2018-05-11T05:56:36.815Z,1876.00
2018-05-11T05:57:36.954Z,1948.00
2018-05-11T05:58:37.097Z,1940.00
2018-05-11T05:59:37.246Z,1964.00
2018-05-11T06:00:37.393Z,1960.00
2018-05-11T06:01:37.533Z,2024.00
2018-05-11T06:02:37.669Z,2000.00
2018-05-11T06:03:37.818Z,2056.00
2018-05-11T06:04:38.015Z,2156.00
2018-05-11T06:05:38.101Z,2172.00
2018-05-11T06:06:38.242Z,2204.00
2018-05-11T06:07:38.382Z,2280.00
2018-05-11T06:08:38.512Z,2272.00
2018-05-11T06:09:38.652Z,2328.00
2018-05-11T06:10:38.788Z,2312.00
2018-05-11T06:11:38.925Z,2392.00
2018-05-11T06:12:39.091Z,2412.00
2018-05-11T06:13:39.232Z,2388.00
2018-05-11T06:14:39.376Z,2348.00
2018-05-11T06:15:39.592Z,2396.00
2018-05-11T06:16:39.690Z,2340.00
2018-05-11T06:17:39.889Z,2288.00
2018-05-11T06:18:39.968Z,2148.00
2018-05-11T06:19:40.138Z,2140.00
2018-05-11T06:20:40.243Z,2116.00
2018-05-11T06:21:40.375Z,2092.00
2018-05-11T06:22:40.517Z,2100.00
2018-05-11T06:23:40.655Z,2128.00
2018-05-11T06:24:40.804Z,2168.00
2018-05-11T06:25:40.943Z,2188.00
2018-05-11T06:26:41.085Z,2172.00
2018-05-11T06:27:42.038Z,2164.00
2018-05-11T06:28:41.337Z,2136.00
2018-05-11T06:29:41.468Z,2148.00
2018-05-11T06:30:41.611Z,2000.00
2018-05-11T06:31:41.747Z,2012.00
2018-05-11T06:32:41.881Z,1996.00
2018-05-11T06:33:42.025Z,1932.00
2018-05-11T06:34:42.164Z,1904.00
2018-05-11T06:35:42.408Z,1904.00
2018-05-11T06:36:42.433Z,1900.00
2018-05-11T06:37:42.573Z,1944.00
2018-05-11T06:38:42.707Z,1972.00
2018-05-11T06:39:42.839Z,2028.00
2018-05-11T06:40:42.975Z,2004.00
2018-05-11T06:41:43.115Z,2020.00
2018-05-11T06:42:43.249Z,2052.00
2018-05-11T06:43:43.407Z,2072.00
2018-05-11T06:44:43.540Z,2088.00
2018-05-11T06:45:43.681Z,2128.00
2018-05-11T06:46:43.824Z,2184.00
2018-05-11T06:47:43.994Z,2236.00
2018-05-11T06:48:44.137Z,2188.00
2018-05-11T06:49:44.274Z,2156.00
2018-05-11T06:50:44.422Z,2096.00
2018-05-11T06:51:44.591Z,2092.00
2018-05-11T06:52:44.720Z,2064.00
2018-05-11T06:53:44.874Z,2020.00
2018-05-11T06:54:45.011Z,1952.00
2018-05-11T06:55:46.064Z,2036.00
2018-05-11T06:56:45.337Z,2116.00
2018-05-11T06:57:45.479Z,2224.00
2018-05-11T06:58:45.612Z,2256.00
2018-05-11T06:59:45.754Z,2136.00
2018-05-11T07:00:45.892Z,2340.00
2018-05-11T07:01:46.039Z,2424.00
2018-05-11T07:02:46.177Z,2516.00
2018-05-11T07:03:46.317Z,2540.00
2018-05-11T07:04:46.458Z,2472.00
2018-05-11T07:05:46.592Z,2324.00
2018-05-11T07:06:46.738Z,2460.00
2018-05-11T07:07:46.929Z,2504.00
2018-05-11T07:08:47.017Z,2516.00
2018-05-11T07:09:47.151Z,2440.00
2018-05-11T07:10:47.295Z,2536.00
2018-05-11T07:11:47.481Z,2576.00
2018-05-11T07:12:47.624Z,2576.00
2018-05-11T07:13:47.765Z,2552.00
2018-05-11T07:14:47.903Z,2516.00
2018-05-11T07:15:48.072Z,2508.00
2018-05-11T07:16:48.206Z,2528.00
2018-05-11T07:17:48.344Z,2556.00
2018-05-11T07:18:48.503Z,2560.00
2018-05-11T07:19:48.636Z,2588.00
2018-05-11T07:20:48.784Z,2600.00
2018-05-11T07:21:48.934Z,2592.00
2018-05-11T07:22:49.075Z,2588.00
2018-05-11T07:23:49.219Z,2560.00
2018-05-11T07:24:49.368Z,2516.00
2018-05-11T07:25:49.550Z,2492.00
2018-05-11T07:26:49.668Z,2448.00
2018-05-11T07:27:49.805Z,2444.00
2018-05-11T07:28:49.942Z,2432.00
2018-05-11T07:29:50.111Z,2404.00
2018-05-11T07:30:50.252Z,2416.00
2018-05-11T07:31:50.386Z,2416.00
2018-05-11T07:32:50.526Z,2412.00
2018-05-11T07:33:50.698Z,2396.00
2018-05-11T07:34:50.884Z,2392.00
2018-05-11T07:35:50.993Z,2244.00
2018-05-11T07:36:51.140Z,2180.00
2018-05-11T07:37:51.289Z,2144.00
2018-05-11T07:38:51.468Z,2176.00
2018-05-11T07:39:51.612Z,2184.00
2018-05-11T07:40:51.755Z,2240.00
2018-05-11T07:41:51.884Z,2328.00
2018-05-11T07:42:52.024Z,2336.00
2018-05-11T07:43:52.170Z,2324.00
2018-05-11T07:44:52.308Z,2288.00
2018-05-11T07:45:52.451Z,2288.00
2018-05-11T07:46:52.591Z,2304.00
2018-05-11T07:47:52.740Z,2324.00
2018-05-11T07:48:52.877Z,2408.00
2018-05-11T07:49:53.013Z,2508.00
2018-05-11T07:50:53.217Z,2528.00
2018-05-11T07:51:53.233Z,2604.00
2018-05-11T07:52:53.376Z,2576.00
2018-05-11T07:53:53.515Z,2628.00
2018-05-11T07:54:53.653Z,2796.00
2018-05-11T07:55:53.791Z,2948.00
2018-05-11T07:56:53.929Z,3052.00
2018-05-11T07:57:54.059Z,3128.00
2018-05-11T07:58:54.201Z,3156.00
2018-05-11T07:59:54.343Z,3132.00
2018-05-11T08:00:54.493Z,3180.00
2018-05-11T08:01:54.618Z,3292.00
2018-05-11T08:02:54.757Z,3460.00
2018-05-11T08:03:54.970Z,3520.00
2018-05-11T08:04:55.079Z,3576.00
2018-05-11T08:05:55.179Z,3684.00
2018-05-11T08:06:55.354Z,3812.00
2018-05-11T08:07:55.506Z,4044.00
2018-05-11T08:08:55.649Z,3976.00
2018-05-11T08:09:55.805Z,3832.00
2018-05-11T08:10:55.944Z,3840.00
2018-05-11T08:11:56.081Z,3868.00
2018-05-11T08:12:56.212Z,3948.00
2018-05-11T08:13:56.364Z,3956.00
2018-05-11T08:14:56.502Z,3920.00
2018-05-11T08:15:56.648Z,3840.00
2018-05-11T08:16:56.794Z,3752.00
2018-05-11T08:17:56.975Z,3768.00
2018-05-11T08:18:57.113Z,3684.00
2018-05-11T08:19:57.250Z,3884.00
2018-05-11T08:20:57.395Z,3700.00
2018-05-11T08:21:57.527Z,3660.00
2018-05-11T08:22:57.668Z,3684.00
2018-05-11T08:23:57.806Z,3620.00
2018-05-11T08:24:57.946Z,3824.00
2018-05-11T08:25:58.112Z,3752.00
2018-05-11T08:26:59.164Z,3692.00
2018-05-11T08:27:58.347Z,3680.00
2018-05-11T08:28:58.512Z,3756.00
2018-05-11T08:29:58.644Z,3860.00
2018-05-11T08:30:58.782Z,3960.00
2018-05-11T08:31:58.921Z,4072.00
2018-05-11T08:32:59.058Z,4148.00
2018-05-11T08:33:59.194Z,4096.00
2018-05-11T08:34:59.384Z,3928.00
2018-05-11T08:35:59.617Z,3996.00
2018-05-11T08:36:59.684Z,4052.00
2018-05-11T08:37:59.831Z,4084.00
2018-05-11T08:38:59.972Z,4348.00
2018-05-11T08:40:00.117Z,4432.00
2018-05-11T08:41:00.258Z,4456.00
2018-05-11T08:42:00.398Z,4288.00
2018-05-11T08:43:00.538Z,4232.00
2018-05-11T08:44:00.677Z,4152.00
2018-05-11T08:45:00.820Z,4056.00
2018-05-11T08:46:00.962Z,3916.00
2018-05-11T08:47:01.148Z,3828.00
2018-05-11T08:48:01.262Z,3832.00
2018-05-11T08:49:01.405Z,4004.00
2018-05-11T08:50:01.579Z,4264.00
2018-05-11T08:51:01.717Z,4436.00
2018-05-11T08:52:01.870Z,4576.00
2018-05-11T08:53:02.001Z,4596.00
2018-05-11T08:54:02.143Z,4400.00
2018-05-11T08:55:02.285Z,4232.00
2018-05-11T08:56:02.422Z,4116.00
2018-05-11T08:57:02.568Z,4224.00
2018-05-11T08:58:02.745Z,4372.00
2018-05-11T08:59:03.572Z,4356.00
2018-05-11T09:01:35.093Z,4236.00
2018-05-11T09:02:35.227Z,3860.00
2018-05-11T09:03:35.369Z,3768.00
2018-05-11T09:04:35.522Z,3812.00
2018-05-11T09:05:35.665Z,4096.00
2018-05-11T09:06:35.811Z,4296.00
2018-05-11T09:07:35.948Z,4256.00
2018-05-11T09:08:36.129Z,4260.00
2018-05-11T09:09:36.228Z,4272.00
2018-05-11T09:10:36.371Z,4188.00
2018-05-11T09:11:36.538Z,4140.00
2018-05-11T09:12:36.714Z,4240.00
2018-05-11T09:13:36.845Z,4364.00
2018-05-11T09:14:36.995Z,4568.00
2018-05-11T09:15:37.138Z,4788.00
2018-05-11T09:16:37.322Z,5084.00
2018-05-11T09:17:37.436Z,4716.00
2018-05-11T09:18:37.575Z,4736.00
2018-05-11T09:19:37.743Z,4416.00
2018-05-11T09:20:37.893Z,4448.00
2018-05-11T09:21:38.029Z,4440.00
2018-05-11T09:22:38.168Z,4480.00
2018-05-11T09:23:38.309Z,4588.00
2018-05-11T09:24:38.478Z,4272.00
2018-05-11T09:25:38.611Z,4624.00
2018-05-11T09:26:38.751Z,4620.00
2018-05-11T09:27:38.893Z,4432.00
2018-05-11T09:28:39.049Z,4296.00
2018-05-11T09:29:39.188Z,3912.00
2018-05-11T09:30:39.331Z,3628.00
2018-05-11T09:31:39.494Z,3472.00
2018-05-11T09:32:39.641Z,3544.00
2018-05-11T09:33:39.790Z,3944.00
2018-05-11T09:34:39.925Z,4120.00
2018-05-11T09:35:40.072Z,4348.00
2018-05-11T09:36:40.214Z,4532.00
2018-05-11T09:37:40.363Z,4668.00
2018-05-11T09:38:40.500Z,4368.00
2018-05-11T09:39:40.659Z,4064.00
2018-05-11T09:40:40.778Z,3808.00
2018-05-11T09:41:40.921Z,3604.00
2018-05-11T09:42:41.056Z,3460.00
2018-05-11T09:43:41.271Z,3464.00
2018-05-11T09:44:41.287Z,3508.00
2018-05-11T09:45:41.423Z,3568.00
2018-05-11T09:46:41.563Z,3716.00
2018-05-11T09:47:41.711Z,4204.00
2018-05-11T09:48:41.849Z,4384.00
2018-05-11T09:49:41.993Z,4596.00
2018-05-11T09:50:42.132Z,4772.00
2018-05-11T09:51:42.281Z,4784.00
2018-05-11T09:52:42.439Z,4344.00
2018-05-11T09:53:42.588Z,3872.00
2018-05-11T09:54:42.748Z,3672.00
2018-05-11T09:55:42.889Z,3528.00
2018-05-11T09:56:43.031Z,3440.00
2018-05-11T09:57:43.188Z,3384.00
2018-05-11T09:58:43.327Z,3340.00
2018-05-11T09:59:43.473Z,3364.00
2018-05-11T10:00:43.662Z,3448.00
2018-05-11T10:01:43.838Z,3744.00
2018-05-11T10:02:43.907Z,3744.00
2018-05-11T10:03:44.045Z,3820.00
2018-05-11T10:04:44.191Z,3888.00
2018-05-11T10:05:44.350Z,3948.00
2018-05-11T10:06:44.492Z,4576.00
2018-05-11T10:07:44.682Z,4728.00
2018-05-11T10:08:44.768Z,4824.00
2018-05-11T10:09:44.899Z,4904.00
2018-05-11T10:10:45.039Z,4744.00
2018-05-11T10:11:45.189Z,4616.00
2018-05-11T10:12:45.344Z,4660.00
2018-05-11T10:13:45.538Z,4696.00
2018-05-11T10:14:45.625Z,4740.00
2018-05-11T10:15:45.759Z,4692.00
2018-05-11T10:16:45.900Z,4756.00
2018-05-11T10:17:46.106Z,4956.00
2018-05-11T10:18:46.172Z,4704.00
2018-05-11T10:19:46.312Z,4976.00
2018-05-11T10:20:46.480Z,4924.00
2018-05-11T10:21:46.612Z,4652.00
2018-05-11T10:22:46.738Z,4768.00
2018-05-11T10:23:46.878Z,4508.00
2018-05-11T10:24:47.013Z,4432.00
2018-05-11T10:25:47.181Z,4416.00
2018-05-11T10:26:47.315Z,4352.00
2018-05-11T10:27:47.456Z,4584.00
2018-05-11T10:28:47.605Z,4840.00
2018-05-11T10:29:47.752Z,5916.00
2018-05-11T10:30:47.886Z,6296.00
2018-05-11T10:31:48.026Z,6488.00
2018-05-11T10:32:48.170Z,6352.00
2018-05-11T10:33:48.314Z,6188.00
2018-05-11T10:34:48.462Z,6252.00
2018-05-11T10:35:48.600Z,6412.00
2018-05-11T10:36:48.733Z,6372.00
2018-05-11T10:37:48.875Z,6384.00
2018-05-11T10:38:49.013Z,6180.00
2018-05-11T10:39:49.183Z,5528.00
2018-05-11T10:40:49.311Z,6280.00
2018-05-11T10:41:49.453Z,6244.00
2018-05-11T10:42:49.589Z,6020.00
2018-05-11T10:43:49.739Z,6388.00
2018-05-11T10:44:49.877Z,6384.00
2018-05-11T10:45:50.026Z,6336.00
2018-05-11T10:46:50.172Z,6328.00
2018-05-11T10:47:50.315Z,6384.00
2018-05-11T10:48:50.473Z,6412.00
2018-05-11T10:49:50.595Z,6408.00
2018-05-11T10:50:50.736Z,5824.00
2018-05-11T10:51:50.905Z,6320.00
2018-05-11T10:52:51.045Z,5836.00
2018-05-11T10:53:51.191Z,5824.00
2018-05-11T10:54:51.404Z,5864.00
2018-05-11T10:55:51.420Z,5928.00
2018-05-11T10:56:51.565Z,5796.00
2018-05-11T10:57:51.719Z,5928.00
2018-05-11T10:58:51.859Z,6264.00
2018-05-11T10:59:52.014Z,6332.00
2018-05-11T11:00:52.162Z,6288.00
2018-05-11T11:01:52.310Z,7076.00
2018-05-11T11:02:52.442Z,7124.00
2018-05-11T11:03:52.580Z,6712.00
2018-05-11T11:04:52.724Z,7312.00
2018-05-11T11:05:52.864Z,6496.00
2018-05-11T11:06:53.006Z,6360.00
2018-05-11T11:07:53.154Z,6528.00
2018-05-11T11:08:53.295Z,6576.00
2018-05-11T11:09:53.443Z,6984.00
2018-05-11T11:10:53.582Z,7340.00
2018-05-11T11:11:53.722Z,7400.00
2018-05-11T11:12:53.881Z,7416.00
2018-05-11T11:13:54.021Z,7228.00
2018-05-11T11:14:54.174Z,7096.00
2018-05-11T11:15:54.316Z,7024.00
2018-05-11T11:16:54.463Z,6712.00
2018-05-11T11:17:54.612Z,6408.00
2018-05-11T11:18:54.747Z,5768.00
2018-05-11T11:19:54.963Z,5860.00
2018-05-11T11:20:55.045Z,6080.00
2018-05-11T11:21:55.191Z,5700.00
2018-05-11T11:22:55.332Z,5612.00
2018-05-11T11:23:55.501Z,6480.00
2018-05-11T11:24:55.635Z,6016.00
2018-05-11T11:25:55.849Z,6224.00
2018-05-11T11:26:55.922Z,6600.00
2018-05-11T11:27:56.078Z,8308.00
2018-05-11T11:28:56.219Z,8388.00
2018-05-11T11:29:56.367Z,7328.00
2018-05-11T11:30:56.500Z,7848.00
2018-05-11T11:31:56.662Z,7444.00
2018-05-11T11:32:56.792Z,7252.00
2018-05-11T11:33:56.933Z,7740.00
2018-05-11T11:34:57.073Z,8168.00
2018-05-11T11:35:57.234Z,7096.00
2018-05-11T11:36:57.342Z,6460.00
2018-05-11T11:37:57.483Z,6504.00
2018-05-11T11:38:57.617Z,6696.00
2018-05-11T11:39:57.758Z,7452.00
2018-05-11T11:40:57.898Z,9224.00
2018-05-11T11:41:58.039Z,9200.00
2018-05-11T11:42:58.179Z,9208.00
2018-05-11T11:43:58.430Z,7912.00
2018-05-11T11:44:58.487Z,7760.00
2018-05-11T11:45:58.626Z,8348.00
2018-05-11T11:46:58.783Z,9392.00
2018-05-11T11:47:58.927Z,9348.00
2018-05-11T11:48:59.074Z,9560.00
2018-05-11T11:49:59.211Z,9832.00
2018-05-11T11:50:59.356Z,10084.00
2018-05-11T11:51:59.501Z,10132.00
2018-05-11T11:52:59.641Z,10352.00
2018-05-11T11:53:59.793Z,8680.00
2018-05-11T11:54:59.938Z,9296.00
2018-05-11T11:56:00.087Z,10932.00
2018-05-11T11:57:00.228Z,11084.00
2018-05-11T11:58:00.376Z,11368.00
2018-05-11T11:59:00.526Z,10896.00
2018-05-11T12:00:00.670Z,10216.00
2018-05-11T12:01:00.812Z,12560.00
2018-05-11T12:02:01.047Z,12556.00
2018-05-11T12:03:01.102Z,12028.00
2018-05-11T12:04:01.242Z,10316.00
2018-05-11T12:05:01.390Z,10136.00
2018-05-11T12:06:01.547Z,11456.00
2018-05-11T12:07:01.685Z,9060.00
2018-05-11T12:08:01.861Z,8744.00
2018-05-11T12:09:02.019Z,8788.00
2018-05-11T12:10:02.148Z,8580.00
2018-05-11T12:11:02.291Z,8408.00
2018-05-11T12:12:02.458Z,8408.00
2018-05-11T12:13:02.598Z,8236.00
2018-05-11T12:14:02.741Z,8156.00
2018-05-11T12:15:02.888Z,8292.00
2018-05-11T12:16:03.021Z,9136.00
2018-05-11T12:17:03.173Z,10636.00
2018-05-11T12:18:03.303Z,10660.00
2018-05-11T12:19:03.443Z,11932.00
2018-05-11T12:20:03.585Z,10912.00
2018-05-11T12:21:03.770Z,10932.00
2018-05-11T12:22:03.881Z,11804.00
2018-05-11T12:23:04.029Z,12228.00
2018-05-11T12:24:04.168Z,11636.00
2018-05-11T12:25:04.352Z,11868.00
2018-05-11T12:26:04.492Z,11024.00
2018-05-11T12:27:04.636Z,11032.00
2018-05-11T12:28:04.802Z,11300.00
2018-05-11T12:29:04.942Z,10836.00
2018-05-11T12:30:05.095Z,11116.00
2018-05-11T12:31:05.243Z,11412.00
2018-05-11T12:32:05.395Z,10892.00